createdAt,value
2018-07-13T00:01:44.160Z,98203.00
2018-07-13T00:05:46.292Z,98202.00
2018-07-13T00:09:48.457Z,98203.00
2018-07-13T00:14:06.052Z,98203.00
2018-07-13T00:18:08.199Z,98202.00
2018-07-13T00:22:10.342Z,98196.00
2018-07-13T00:26:12.759Z,98201.00
2018-07-13T00:30:14.886Z,98198.00
2018-07-13T00:34:17.027Z,98202.00
2018-07-13T00:38:19.172Z,98209.00
2018-07-13T00:42:21.684Z,98209.00
2018-07-13T00:46:23.910Z,98204.00
2018-07-13T00:50:26.096Z,98213.00
2018-07-13T00:54:28.503Z,98211.00
2018-07-13T00:58:30.652Z,98217.00
2018-07-13T01:02:32.997Z,98222.00
2018-07-13T01:06:35.128Z,98223.00
2018-07-13T01:10:37.394Z,98233.00
2018-07-13T01:14:39.591Z,98224.00
2018-07-13T01:18:41.824Z,98225.00
2018-07-13T01:22:44.120Z,98229.00
2018-07-13T01:26:46.270Z,98231.00
2018-07-13T01:30:48.534Z,98224.00
2018-07-13T01:34:50.679Z,98219.00
2018-07-13T01:38:52.845Z,98221.00
2018-07-13T01:42:54.998Z,98220.00
2018-07-13T01:46:57.131Z,98217.00
2018-07-13T01:50:59.290Z,98215.00
2018-07-13T01:55:01.664Z,98219.00
2018-07-13T01:59:03.918Z,98230.00
2018-07-13T02:03:06.047Z,98228.00
2018-07-13T02:07:08.156Z,98224.00
2018-07-13T02:11:10.330Z,98228.00
2018-07-13T02:15:12.476Z,98229.00
2018-07-13T02:19:14.608Z,98220.00
2018-07-13T02:23:16.728Z,98219.00
2018-07-13T02:27:18.848Z,98220.00
2018-07-13T02:31:21.026Z,98214.00
2018-07-13T02:35:23.171Z,98224.00
2018-07-13T02:39:25.318Z,98229.00
2018-07-13T02:43:27.455Z,98235.00
2018-07-13T02:47:29.629Z,98235.00
2018-07-13T02:51:31.819Z,98234.00
2018-07-13T02:55:33.942Z,98243.00
2018-07-13T02:59:36.074Z,98245.00
2018-07-13T03:03:38.227Z,98251.00
2018-07-13T03:07:40.355Z,98207.00
2018-07-13T03:11:42.541Z,98255.00
2018-07-13T03:15:44.681Z,98246.00
2018-07-13T03:19:47.694Z,98253.00
2018-07-13T03:23:49.856Z,98251.00
2018-07-13T03:27:53.303Z,98249.00
2018-07-13T03:31:55.614Z,98266.00
2018-07-13T03:35:57.914Z,98266.00
2018-07-13T03:40:00.031Z,98258.00
2018-07-13T03:44:02.180Z,98263.00
2018-07-13T03:48:04.372Z,98260.00
2018-07-13T03:52:06.591Z,98259.00
2018-07-13T03:56:08.787Z,98262.00
2018-07-13T04:00:11.122Z,98266.00
2018-07-13T04:04:13.326Z,98263.00
2018-07-13T04:08:15.703Z,98262.00
2018-07-13T04:12:17.847Z,98268.00
2018-07-13T04:16:20.539Z,98269.00
2018-07-13T04:20:22.919Z,98257.00
2018-07-13T04:24:25.173Z,98254.00
2018-07-13T04:28:27.705Z,98257.00
2018-07-13T04:32:30.017Z,98267.00
2018-07-13T04:36:32.252Z,98256.00
2018-07-13T04:40:34.532Z,98261.00
2018-07-13T04:44:36.893Z,98268.00
2018-07-13T04:48:39.183Z,98263.00
2018-07-13T04:52:41.403Z,98266.00
2018-07-13T04:56:43.675Z,98269.00
2018-07-13T05:00:45.941Z,98255.00
2018-07-13T05:04:48.215Z,98271.00
2018-07-13T05:08:50.571Z,98273.00
2018-07-13T05:12:53.268Z,98263.00
2018-07-13T05:16:55.548Z,98271.00
2018-07-13T05:20:57.967Z,98266.00
2018-07-13T05:25:00.232Z,98281.00
2018-07-13T05:29:02.430Z,98279.00
2018-07-13T05:33:04.893Z,98271.00
2018-07-13T05:37:07.156Z,98279.00
2018-07-13T05:41:09.462Z,98281.00
2018-07-13T05:45:11.693Z,98280.00
2018-07-13T05:49:13.898Z,98288.00
2018-07-13T05:53:16.114Z,98293.00
2018-07-13T05:57:18.455Z,98291.00
2018-07-13T06:01:20.717Z,98296.00
2018-07-13T06:05:22.959Z,98289.00
2018-07-13T06:09:25.216Z,98297.00
2018-07-13T06:13:27.390Z,98300.00
2018-07-13T06:17:29.561Z,98306.00
2018-07-13T06:21:31.698Z,98314.00
2018-07-13T06:25:33.878Z,98313.00
2018-07-13T06:29:36.475Z,98323.00
2018-07-13T06:33:38.694Z,98315.00
2018-07-13T06:37:40.912Z,98312.00
2018-07-13T06:41:43.092Z,98315.00
2018-07-13T06:45:45.296Z,98320.00
2018-07-13T06:49:47.676Z,98318.00
2018-07-13T06:53:49.906Z,98327.00
2018-07-13T06:58:03.644Z,98321.00
2018-07-13T07:02:06.200Z,98329.00
2018-07-13T07:06:09.947Z,98326.00
2018-07-13T07:10:12.114Z,98325.00
2018-07-13T07:14:14.288Z,98319.00
2018-07-13T07:18:16.446Z,98329.00
2018-07-13T07:22:18.567Z,98318.00
2018-07-13T07:26:20.773Z,98311.00
2018-07-13T07:30:23.084Z,98295.00
2018-07-13T07:34:25.244Z,98312.00
2018-07-13T07:38:27.700Z,98309.00
2018-07-13T07:42:29.978Z,98305.00
2018-07-13T07:46:32.160Z,98308.00
2018-07-13T07:50:34.907Z,98308.00
2018-07-13T07:54:37.196Z,98314.00
2018-07-13T07:58:39.326Z,98311.00
2018-07-13T08:02:41.626Z,98318.00
2018-07-13T08:06:43.897Z,98320.00
2018-07-13T08:10:46.109Z,98315.00
2018-07-13T08:14:48.265Z,98324.00
2018-07-13T08:18:50.397Z,98323.00
2018-07-13T08:23:00.755Z,98322.00
2018-07-13T08:27:03.824Z,98322.00
2018-07-13T08:31:06.048Z,98312.00
2018-07-13T08:35:08.230Z,98311.00
2018-07-13T08:39:10.416Z,98316.00
2018-07-13T08:43:12.646Z,98310.00
2018-07-13T08:47:14.876Z,98315.00
2018-07-13T08:51:17.175Z,98313.00
2018-07-13T08:55:19.374Z,98319.00
2018-07-13T08:59:21.710Z,98316.00
2018-07-13T09:03:24.199Z,98323.00
2018-07-13T09:07:26.474Z,98327.00
2018-07-13T09:11:28.702Z,98320.00
2018-07-13T09:15:30.922Z,98327.00
2018-07-13T09:19:33.128Z,98325.00
2018-07-13T09:23:35.395Z,98311.00
2018-07-13T09:27:38.028Z,98331.00
2018-07-13T09:31:40.256Z,98319.00
2018-07-13T09:35:42.605Z,98330.00
2018-07-13T09:39:44.872Z,98316.00
2018-07-13T09:43:47.000Z,98322.00
2018-07-13T09:47:49.222Z,98315.00
2018-07-13T09:51:51.427Z,98312.00
2018-07-13T09:55:53.628Z,98319.00
2018-07-13T09:59:55.760Z,98311.00
2018-07-13T10:03:57.995Z,98316.00
2018-07-13T10:08:00.236Z,98319.00
2018-07-13T10:12:02.522Z,98320.00
2018-07-13T10:16:04.842Z,98315.00
2018-07-13T10:20:07.088Z,98317.00
2018-07-13T10:24:09.952Z,98316.00
2018-07-13T10:28:12.182Z,98316.00
2018-07-13T10:32:14.432Z,98305.00
2018-07-13T10:36:17.599Z,98307.00
2018-07-13T10:40:19.818Z,98311.00
2018-07-13T10:44:22.102Z,98317.00
2018-07-13T10:48:24.287Z,98317.00
2018-07-13T10:52:26.463Z,98314.00
2018-07-13T10:56:29.159Z,98316.00
2018-07-13T11:00:31.415Z,98305.00
2018-07-13T11:04:33.567Z,98302.00
2018-07-13T11:08:35.763Z,98301.00
2018-07-13T11:12:38.063Z,98298.00
2018-07-13T11:16:40.292Z,98298.00
2018-07-13T11:20:42.455Z,98297.00
2018-07-13T11:24:44.796Z,98286.00
2018-07-13T11:28:47.015Z,98290.00
2018-07-13T11:32:49.368Z,98284.00
2018-07-13T11:36:51.687Z,98288.00
2018-07-13T11:40:53.796Z,98284.00
2018-07-13T11:44:55.940Z,98275.00
2018-07-13T11:48:58.176Z,98274.00
2018-07-13T11:53:00.388Z,98270.00
2018-07-13T11:57:02.587Z,98268.00
2018-07-13T12:01:04.945Z,98262.00
2018-07-13T12:05:07.119Z,98271.00
2018-07-13T12:09:09.783Z,98258.00
2018-07-13T12:13:11.977Z,98257.00
2018-07-13T12:17:14.131Z,98254.00
2018-07-13T12:21:16.348Z,98245.00
2018-07-13T12:25:18.601Z,98239.00
2018-07-13T12:29:20.811Z,98246.00
2018-07-13T12:33:23.008Z,98247.00
2018-07-13T12:37:25.258Z,98249.00
2018-07-13T12:41:27.638Z,98247.00
2018-07-13T12:45:29.830Z,98258.00
2018-07-13T12:49:32.067Z,98249.00
2018-07-13T12:53:34.265Z,98250.00
2018-07-13T12:57:36.496Z,98250.00
2018-07-13T13:01:38.667Z,98254.00
2018-07-13T13:05:40.920Z,98248.00
2018-07-13T13:09:43.150Z,98235.00
2018-07-13T13:13:45.447Z,98238.00
2018-07-13T13:17:48.137Z,98230.00
2018-07-13T13:21:50.405Z,98244.00
2018-07-13T13:25:52.461Z,98242.00
2018-07-13T13:29:54.945Z,98248.00
2018-07-13T13:33:57.184Z,98249.00
2018-07-13T13:37:59.463Z,98244.00
2018-07-13T13:42:01.643Z,98236.00
2018-07-13T13:46:03.869Z,98243.00
2018-07-13T13:50:06.145Z,98240.00
2018-07-13T13:54:08.364Z,98252.00
2018-07-13T13:58:10.572Z,98252.00
2018-07-13T14:02:12.754Z,98242.00
2018-07-13T14:06:14.952Z,98257.00
2018-07-13T14:10:17.155Z,98265.00
2018-07-13T14:14:19.321Z,98266.00
2018-07-13T14:18:21.488Z,98283.00
2018-07-13T14:22:23.871Z,98281.00
2018-07-13T14:26:26.028Z,98261.00
2018-07-13T14:30:28.207Z,98247.00
2018-07-13T14:34:30.511Z,98243.00
2018-07-13T14:38:33.025Z,98231.00
2018-07-13T14:42:35.421Z,98233.00
2018-07-13T14:46:37.583Z,98239.00
2018-07-13T14:50:39.779Z,98230.00
2018-07-13T14:54:42.011Z,98236.00
2018-07-13T14:58:44.245Z,98226.00
2018-07-13T15:02:46.476Z,98232.00
2018-07-13T15:06:48.718Z,98230.00
2018-07-13T15:10:50.885Z,98230.00
2018-07-13T15:14:53.090Z,98232.00
2018-07-13T15:18:55.251Z,98230.00
2018-07-13T15:22:57.452Z,98239.00
2018-07-13T15:26:59.627Z,98249.00
2018-07-13T15:31:01.796Z,98243.00
2018-07-13T15:35:04.077Z,98241.00
2018-07-13T15:39:06.651Z,98239.00
2018-07-13T15:43:08.825Z,98241.00
2018-07-13T15:47:10.973Z,98244.00
2018-07-13T15:51:13.159Z,98236.00
2018-07-13T15:55:15.360Z,98237.00
2018-07-13T15:59:17.608Z,98237.00
2018-07-13T16:03:19.860Z,98231.00
2018-07-13T16:07:22.064Z,98226.00
2018-07-13T16:11:24.305Z,98231.00
2018-07-13T16:15:26.785Z,98225.00
2018-07-13T16:19:29.058Z,98224.00
2018-07-13T16:23:31.287Z,98217.00
2018-07-13T16:27:33.559Z,98216.00
2018-07-13T16:31:35.876Z,98205.00
2018-07-13T16:35:38.108Z,98199.00
2018-07-13T16:39:40.331Z,98197.00
2018-07-13T16:43:42.515Z,98200.00
2018-07-13T16:47:44.699Z,98200.00
2018-07-13T16:51:46.929Z,98196.00
2018-07-13T16:55:49.040Z,98205.00
2018-07-13T16:59:51.255Z,98194.00
2018-07-13T17:03:53.515Z,98194.00
2018-07-13T17:07:55.842Z,98191.00
2018-07-13T17:11:58.008Z,98189.00
2018-07-13T17:16:00.265Z,98187.00
2018-07-13T17:20:02.589Z,98175.00
2018-07-13T17:24:04.905Z,98189.00
2018-07-13T17:28:07.101Z,98187.00
2018-07-13T17:32:09.371Z,98182.00
2018-07-13T17:36:11.555Z,98190.00
2018-07-13T17:40:13.791Z,98193.00
2018-07-13T17:44:16.567Z,98181.00
2018-07-13T17:48:18.750Z,98185.00
2018-07-13T17:52:20.943Z,98181.00
2018-07-13T17:56:23.151Z,98189.00
2018-07-13T18:00:25.359Z,98181.00
2018-07-13T18:04:27.531Z,98180.00
2018-07-13T18:08:29.699Z,98181.00
2018-07-13T18:12:37.914Z,98178.00
2018-07-13T18:16:40.274Z,98183.00
2018-07-13T18:20:42.494Z,98175.00
2018-07-13T18:24:44.643Z,98184.00
2018-07-13T18:28:46.789Z,98190.00
2018-07-13T18:32:49.028Z,98181.00
2018-07-13T18:36:51.216Z,98188.00
2018-07-13T18:40:53.396Z,98190.00
2018-07-13T18:44:55.565Z,98195.00
2018-07-13T18:48:57.763Z,98203.00
2018-07-13T18:52:59.934Z,98198.00
2018-07-13T18:57:02.630Z,98200.00
2018-07-13T19:01:04.858Z,98191.00
2018-07-13T19:05:07.031Z,98192.00
2018-07-13T19:09:09.742Z,98205.00
2018-07-13T19:13:12.084Z,98206.00
2018-07-13T19:17:14.366Z,98210.00
2018-07-13T19:21:16.558Z,98215.00
2018-07-13T19:25:18.939Z,98216.00
2018-07-13T19:29:21.196Z,98234.00
2018-07-13T19:33:23.460Z,98227.00
2018-07-13T19:37:25.621Z,98223.00
2018-07-13T19:41:27.875Z,98231.00
2018-07-13T19:45:30.325Z,98236.00
2018-07-13T19:49:32.571Z,98241.00
2018-07-13T19:53:34.707Z,98243.00
2018-07-13T19:57:36.889Z,98246.00
2018-07-13T20:01:39.215Z,98254.00
2018-07-13T20:05:41.376Z,98256.00
2018-07-13T20:09:43.567Z,98260.00
2018-07-13T20:13:45.742Z,98265.00
2018-07-13T20:17:48.411Z,98264.00
2018-07-13T20:21:50.590Z,98263.00
2018-07-13T20:25:52.753Z,98255.00
2018-07-13T20:29:55.437Z,98264.00
2018-07-13T20:33:57.686Z,98270.00
2018-07-13T20:37:59.994Z,98278.00
2018-07-13T20:42:02.216Z,98284.00
2018-07-13T20:46:04.491Z,98287.00
2018-07-13T20:50:06.974Z,98289.00
2018-07-13T20:54:09.233Z,98285.00
2018-07-13T20:58:11.449Z,98283.00
2018-07-13T21:02:13.720Z,98286.00
2018-07-13T21:06:15.967Z,98283.00
2018-07-13T21:10:18.265Z,98279.00
2018-07-13T21:14:20.445Z,98284.00
2018-07-13T21:18:22.668Z,98289.00
2018-07-13T21:22:24.999Z,98289.00
2018-07-13T21:26:27.275Z,98299.00
2018-07-13T21:30:29.496Z,98300.00
2018-07-13T21:34:31.775Z,98299.00
2018-07-13T21:38:34.003Z,98298.00
2018-07-13T21:42:36.286Z,98292.00
2018-07-13T21:46:38.516Z,98296.00
2018-07-13T21:50:40.828Z,98299.00
2018-07-13T21:54:43.157Z,98302.00
2018-07-13T21:58:45.574Z,98299.00
2018-07-13T22:02:47.845Z,98298.00
2018-07-13T22:06:50.041Z,98301.00
2018-07-13T22:10:52.296Z,98302.00
2018-07-13T22:14:54.527Z,98305.00
2018-07-13T22:18:56.792Z,98308.00
2018-07-13T22:22:59.014Z,98302.00
2018-07-13T22:27:01.542Z,98301.00
2018-07-13T22:31:03.804Z,98305.00
2018-07-13T22:35:06.093Z,98301.00
2018-07-13T22:39:08.385Z,98307.00
2018-07-13T22:43:10.775Z,98314.00
2018-07-13T22:47:13.022Z,98308.00
2018-07-13T22:51:15.310Z,98312.00
2018-07-13T22:55:18.376Z,98312.00
2018-07-13T22:59:20.550Z,98310.00
2018-07-13T23:03:22.761Z,98301.00
2018-07-13T23:07:24.960Z,98311.00
2018-07-13T23:11:27.201Z,98304.00
2018-07-13T23:15:29.444Z,98300.00
2018-07-13T23:19:31.652Z,98299.00
2018-07-13T23:23:33.885Z,98300.00
2018-07-13T23:27:36.100Z,98300.00
2018-07-13T23:31:38.377Z,98299.00
2018-07-13T23:35:40.592Z,98291.00
2018-07-13T23:39:42.801Z,98293.00
2018-07-13T23:43:45.128Z,98284.00
2018-07-13T23:47:47.318Z,98284.00
2018-07-13T23:51:49.545Z,98286.00
2018-07-13T23:55:51.771Z,98283.00
2018-07-13T23:59:53.993Z,98280.00
